Station Historical Data
Daily Summary for February 11, 2019 Units:  English    Metric   Both
« Previous Day
Next Day »
Daily Weekly Monthly Yearly Custom
  High: Low: Average:
Temperature: TemperatureF °F 45.6 °F 53.8 °F
Dew Point: DewpointF °F 44.5 °F 52.3 °F
Humidity: Humidity % 84 % 94 %
Wind Speed: WindSpeedMPH mph 0.0 mph 2.7 mph
Wind Gust: WindSpeedGustMPH mph - -
Wind:- - SSE
Pressure: PressureIn in 29.83 in -
Precipitation: 0.06 in    
Historical Graphs
 
 
Tabular Data for February 11, 2019
Time Temperature Dew Point Pressure Wind Wind Speed Wind Gust Humidity Rainfall Rate (Hourly) solar Conditions
TemperatureF °F DewpointF °F PressureIn in Calm     Humidity % HourlyPrecipIn in SolarRadiationWatts/m^2 W/m2 Conditions
00:04 45.6 °F 44.5 °F 30.20 in Calm     96 % 0.00 in 0.00 W/m2 RA
00:09 45.7 °F 44.6 °F 30.20 in Calm     96 % 0.00 in 0.00 W/m2 RA
00:14 45.8 °F 44.7 °F 30.20 in Calm     96 % 0.00 in 0.00 W/m2 OVC
00:19 45.8 °F 44.7 °F 30.20 in Calm     96 % 0.00 in 0.00 W/m2 OVC
00:24 45.9 °F 44.8 °F 30.20 in Calm     96 % 0.00 in 0.00 W/m2 OVC
00:29 45.9 °F 44.8 °F 30.19 in Calm     96 % 0.00 in 0.00 W/m2 OVC
00:34 46.0 °F 44.9 °F 30.20 in Calm     96 % 0.00 in 0.00 W/m2 OVC
00:39 46.0 °F 44.9 °F 30.20 in Calm     96 % 0.00 in 0.00 W/m2 OVC
00:44 46.1 °F 45.0 °F 30.20 in Calm     96 % 0.00 in 0.00 W/m2 OVC
00:49 46.1 °F 45.0 °F 30.20 in Calm     96 % 0.00 in 0.00 W/m2 OVC
00:54 46.2 °F 45.1 °F 30.20 in Calm     96 % 0.00 in 0.00 W/m2 OVC
00:59 46.2 °F 45.1 °F 30.20 in Calm     96 % 0.00 in 0.00 W/m2 OVC
01:04 46.3 °F 45.2 °F 30.19 in Calm     96 % 0.00 in 0.00 W/m2 OVC
01:09 46.3 °F 45.2 °F 30.19 in Calm     96 % 0.00 in 0.00 W/m2 OVC
01:14 46.3 °F 45.2 °F 30.19 in Calm   0.3 mph 96 % 0.00 in 0.00 W/m2 OVC
01:19 46.3 °F 45.2 °F 30.18 in ESE 2.3 mph   96 % 0.00 in 0.00 W/m2 OVC
01:24 46.4 °F 45.3 °F 30.18 in Calm     96 % 0.00 in 0.00 W/m2 OVC
01:29 46.5 °F 45.4 °F 30.18 in Calm     96 % 0.00 in 0.00 W/m2 OVC
01:34 46.6 °F 45.5 °F 30.19 in Calm     96 % 0.00 in 0.00 W/m2 OVC
01:39 46.7 °F 45.6 °F 30.18 in Calm     96 % 0.00 in 0.00 W/m2 OVC
01:44 46.8 °F 45.4 °F 30.18 in Calm     95 % 0.00 in 0.00 W/m2 OVC
01:49 46.8 °F 45.4 °F 30.19 in Calm     95 % 0.00 in 0.00 W/m2 OVC
01:54 46.9 °F 45.5 °F 30.18 in Calm     95 % 0.00 in 0.00 W/m2 OVC
01:59 46.9 °F 45.5 °F 30.18 in Calm     95 % 0.00 in 0.00 W/m2 OVC
02:04 46.9 °F 45.5 °F 30.17 in Calm     95 % 0.00 in 0.00 W/m2 OVC
02:09 46.9 °F 45.5 °F 30.17 in Calm     95 % 0.00 in 0.00 W/m2 OVC
02:14 46.9 °F 45.5 °F 30.16 in Calm     95 % 0.00 in 0.00 W/m2 OVC
02:19 47.0 °F 45.6 °F 30.16 in Calm     95 % 0.00 in 0.00 W/m2 OVC
02:24 46.9 °F 45.5 °F 30.16 in Calm     95 % 0.00 in 0.00 W/m2 OVC
02:29 47.0 °F 45.6 °F 30.16 in Calm     95 % 0.00 in 0.00 W/m2 OVC
02:34 46.9 °F 45.5 °F 30.16 in Calm     95 % 0.00 in 0.00 W/m2 OVC
02:39 46.9 °F 45.5 °F 30.15 in Calm     95 % 0.00 in 0.00 W/m2 OVC
02:44 46.9 °F 45.5 °F 30.16 in Calm     95 % 0.00 in 0.00 W/m2 OVC
02:49 46.8 °F 45.4 °F 30.15 in Calm     95 % 0.00 in 0.00 W/m2 OVC
02:54 46.8 °F 45.4 °F 30.15 in Calm     95 % 0.00 in 0.00 W/m2 OVC
02:59 46.8 °F 45.4 °F 30.15 in Calm     95 % 0.00 in 0.00 W/m2 OVC
03:04 46.8 °F 45.4 °F 30.14 in Calm     95 % 0.00 in 0.00 W/m2 OVC
03:09 46.9 °F 45.5 °F 30.14 in Calm     95 % 0.00 in 0.00 W/m2 OVC
03:14 46.9 °F 45.5 °F 30.14 in Calm     95 % 0.00 in 0.00 W/m2 OVC
03:19 46.9 °F 45.5 °F 30.13 in Calm     95 % 0.00 in 0.00 W/m2 OVC
03:24 46.9 °F 45.5 °F 30.13 in Calm     95 % 0.00 in 0.00 W/m2 OVC
03:29 47.1 °F 46.0 °F 30.13 in ESE 2.3 mph 0.7 mph 96 % 0.00 in 0.00 W/m2 OVC
03:34 47.4 °F 46.3 °F 30.13 in Calm     96 % 0.00 in 0.00 W/m2 OVC
03:39 47.6 °F 46.5 °F 30.13 in Calm     96 % 0.00 in 0.00 W/m2 OVC
03:44 47.8 °F 46.7 °F 30.13 in Calm     96 % 0.00 in 0.00 W/m2 OVC
03:49 47.9 °F 46.8 °F 30.13 in Calm     96 % 0.00 in 0.00 W/m2 OVC
03:54 48.1 °F 47.0 °F 30.13 in Calm     96 % 0.00 in 0.00 W/m2 OVC
03:59 48.2 °F 47.1 °F 30.13 in Calm     96 % 0.00 in 0.00 W/m2 OVC
04:04 48.4 °F 47.3 °F 30.13 in Calm     96 % 0.00 in 0.00 W/m2 OVC
04:09 48.5 °F 47.4 °F 30.12 in Calm     96 % 0.00 in 0.00 W/m2 OVC
04:14 48.6 °F 47.5 °F 30.12 in Calm     96 % 0.00 in 0.00 W/m2 OVC
04:19 48.6 °F 47.5 °F 30.12 in Calm     96 % 0.00 in 0.00 W/m2 OVC
04:24 48.7 °F 47.6 °F 30.12 in Calm     96 % 0.00 in 0.00 W/m2 OVC
04:29 48.8 °F 47.7 °F 30.12 in Calm     96 % 0.00 in 0.00 W/m2 OVC
04:34 48.9 °F 47.8 °F 30.12 in Calm     96 % 0.00 in 0.00 W/m2 OVC
04:39 49.1 °F 48.0 °F 30.12 in SSE 2.3 mph 0.2 mph 96 % 0.00 in 0.00 W/m2 OVC
04:44 49.2 °F 48.1 °F 30.12 in SSE 1.0 mph 0.2 mph 96 % 0.00 in 0.00 W/m2 OVC
04:49 49.4 °F 48.3 °F 30.12 in SSE 3.5 mph 1.1 mph 96 % 0.00 in 0.00 W/m2 OVC
04:54 49.6 °F 48.8 °F 30.11 in SE 2.3 mph   97 % 0.00 in 0.00 W/m2 OVC
04:59 49.7 °F 48.9 °F 30.11 in SE 3.5 mph 1.4 mph 97 % 0.00 in 0.00 W/m2 OVC
05:04 49.7 °F 48.6 °F 30.11 in SE 3.0 mph 0.9 mph 96 % 0.00 in 0.00 W/m2 OVC
05:09 49.9 °F 48.8 °F 30.10 in SE 3.5 mph 1.8 mph 96 % 0.00 in 0.00 W/m2 OVC
05:14 50.0 °F 48.9 °F 30.10 in Calm     96 % 0.00 in 0.00 W/m2 OVC
05:19 50.1 °F 49.3 °F 30.10 in Calm     97 % 0.00 in 0.00 W/m2 OVC
05:24 50.1 °F 49.3 °F 30.10 in SSW 3.5 mph 0.8 mph 97 % 0.00 in 0.00 W/m2 OVC
05:29 50.2 °F 49.4 °F 30.10 in Calm     97 % 0.00 in 0.00 W/m2 OVC
05:34 50.3 °F 49.5 °F 30.11 in Calm     97 % 0.00 in 0.00 W/m2 OVC
05:39 50.4 °F 49.6 °F 30.10 in SSE 3.5 mph 1.2 mph 97 % 0.00 in 0.00 W/m2 OVC
05:44 50.4 °F 49.6 °F 30.10 in SSE 1.2 mph 0.2 mph 97 % 0.00 in 0.00 W/m2 OVC
05:49 50.5 °F 49.7 °F 30.10 in Calm     97 % 0.00 in 0.00 W/m2 OVC
05:54 50.5 °F 49.7 °F 30.11 in Calm     97 % 0.00 in 0.00 W/m2 OVC
05:59 50.5 °F 49.7 °F 30.10 in Calm     97 % 0.00 in 0.00 W/m2 OVC
06:04 50.6 °F 49.8 °F 30.10 in Calm     97 % 0.00 in 0.00 W/m2 OVC
06:09 50.6 °F 49.8 °F 30.10 in SE 1.2 mph   97 % 0.00 in 0.00 W/m2 OVC
06:14 50.6 °F 49.8 °F 30.09 in Calm     97 % 0.00 in 0.00 W/m2 OVC
06:19 50.7 °F 49.9 °F 30.09 in Calm     97 % 0.00 in 0.00 W/m2 OVC
06:24 50.8 °F 50.0 °F 30.10 in Calm     97 % 0.00 in 0.00 W/m2 OVC
06:29 50.8 °F 50.0 °F 30.10 in SE 2.3 mph   97 % 0.00 in 0.00 W/m2 OVC
06:34 50.8 °F 50.0 °F 30.10 in Calm     97 % 0.00 in 0.00 W/m2 OVC
06:39 50.9 °F 50.1 °F 30.10 in SE 2.3 mph   97 % 0.00 in 0.00 W/m2 OVC
06:44 51.0 °F 50.2 °F 30.10 in South 1.2 mph 0.2 mph 97 % 0.00 in 0.00 W/m2 OVC
06:49 51.1 °F 50.3 °F 30.10 in SSE 3.5 mph 1.6 mph 97 % 0.00 in 0.00 W/m2 OVC
06:54 51.2 °F 50.4 °F 30.10 in SSE 2.3 mph 1.4 mph 97 % 0.00 in 0.00 W/m2 OVC
06:59 51.3 °F 50.5 °F 30.10 in South 2.3 mph 0.5 mph 97 % 0.00 in 0.00 W/m2 OVC
07:04 51.4 °F 50.6 °F 30.10 in South 3.5 mph 1.5 mph 97 % 0.00 in 7.00 W/m2 OVC
07:09 51.4 °F 50.6 °F 30.09 in SSE 5.8 mph 0.7 mph 97 % 0.00 in 7.00 W/m2 OVC
07:14 51.5 °F 50.7 °F 30.09 in SE 5.8 mph 2.3 mph 97 % 0.00 in 11.00 W/m2 OVC
07:19 51.5 °F 50.7 °F 30.10 in East 4.6 mph 2.8 mph 97 % 0.00 in 14.00 W/m2 OVC
07:24 51.5 °F 50.7 °F 30.10 in SE 3.5 mph 1.4 mph 97 % 0.00 in 14.00 W/m2 OVC
07:29 51.6 °F 50.8 °F 30.09 in SE 3.5 mph 1.7 mph 97 % 0.00 in 12.00 W/m2 OVC
07:34 51.6 °F 50.8 °F 30.09 in South 4.6 mph 1.7 mph 97 % 0.00 in 16.00 W/m2 OVC
07:39 51.5 °F 50.7 °F 30.09 in SSE 3.5 mph 0.9 mph 97 % 0.00 in 23.00 W/m2 OVC
07:44 51.6 °F 50.8 °F 30.09 in SSE 5.0 mph 2.3 mph 97 % 0.00 in 28.00 W/m2 OVC
07:49 51.6 °F 50.8 °F 30.09 in SE 4.6 mph 1.5 mph 97 % 0.00 in 28.00 W/m2 OVC
07:54 51.6 °F 50.8 °F 30.09 in SE 4.6 mph 1.9 mph 97 % 0.00 in 33.00 W/m2 OVC
07:59 51.6 °F 50.8 °F 30.09 in SSE 3.5 mph 0.2 mph 97 % 0.00 in 33.00 W/m2 OVC
08:04 51.7 °F 50.9 °F 30.09 in SSE 3.5 mph 1.8 mph 97 % 0.00 in 32.00 W/m2 OVC
08:09 51.7 °F 50.9 °F 30.09 in SSE 2.3 mph   97 % 0.00 in 30.00 W/m2 OVC
08:14 51.7 °F 50.9 °F 30.09 in SSE 3.5 mph 1.3 mph 97 % 0.00 in 32.00 W/m2 OVC
08:19 51.7 °F 50.9 °F 30.09 in Calm     97 % 0.00 in 32.00 W/m2 OVC
08:24 51.8 °F 51.0 °F 30.08 in Calm     97 % 0.00 in 35.00 W/m2 OVC
08:29 51.8 °F 51.0 °F 30.08 in Calm     97 % 0.00 in 37.00 W/m2 OVC
08:34 51.9 °F 51.1 °F 30.08 in SE 5.8 mph 1.5 mph 97 % 0.00 in 40.00 W/m2 OVC
08:39 51.9 °F 51.1 °F 30.07 in Calm     97 % 0.00 in 40.00 W/m2 OVC
08:44 52.0 °F 51.2 °F 30.07 in SE 3.5 mph 1.2 mph 97 % 0.00 in 39.00 W/m2 OVC
08:49 52.1 °F 51.3 °F 30.07 in SE 3.5 mph 2.4 mph 97 % 0.00 in 44.00 W/m2 OVC
08:54 52.3 °F 51.5 °F 30.07 in SE 3.5 mph 1.1 mph 97 % 0.00 in 49.00 W/m2 OVC
08:59 52.4 °F 51.6 °F 30.07 in ESE 2.3 mph 1.0 mph 97 % 0.00 in 46.00 W/m2 OVC
09:04 52.5 °F 51.7 °F 30.06 in SSE 3.5 mph 2.9 mph 97 % 0.00 in 51.00 W/m2 OVC
09:09 52.6 °F 51.8 °F 30.05 in SE 3.5 mph 1.9 mph 97 % 0.00 in 58.00 W/m2 OVC
09:14 52.7 °F 51.9 °F 30.05 in SE 5.0 mph 3.0 mph 97 % 0.00 in 54.00 W/m2 OVC
09:19 52.8 °F 52.0 °F 30.04 in SE 4.6 mph 2.6 mph 97 % 0.00 in 72.00 W/m2 OVC
09:24 53.0 °F 52.2 °F 30.05 in SE 3.5 mph 2.1 mph 97 % 0.00 in 74.00 W/m2 OVC
09:29 53.2 °F 52.4 °F 30.05 in South 4.6 mph 2.5 mph 97 % 0.00 in 86.00 W/m2 OVC
09:34 53.3 °F 52.5 °F 30.05 in SE 4.0 mph 2.2 mph 97 % 0.00 in 65.00 W/m2 OVC
09:39 53.5 °F 52.7 °F 30.05 in SSE 5.0 mph 3.0 mph 97 % 0.00 in 70.00 W/m2 OVC
09:44 53.6 °F 52.8 °F 30.05 in SW 3.5 mph 0.3 mph 97 % 0.00 in 69.00 W/m2 OVC
09:49 53.7 °F 52.9 °F 30.05 in SW 3.5 mph 0.6 mph 97 % 0.00 in 76.00 W/m2 OVC
09:54 53.8 °F 53.0 °F 30.04 in South 4.6 mph 2.4 mph 97 % 0.00 in 81.00 W/m2 OVC
09:59 53.9 °F 53.1 °F 30.05 in SSE 3.5 mph 1.3 mph 97 % 0.00 in 79.00 W/m2 OVC
10:04 54.1 °F 53.3 °F 30.05 in South 5.8 mph 0.4 mph 97 % 0.00 in 72.00 W/m2 OVC
10:09 54.2 °F 53.1 °F 30.04 in SSE 2.3 mph 0.3 mph 96 % 0.00 in 88.00 W/m2 OVC
10:14 54.2 °F 53.4 °F 30.04 in SSE 4.6 mph 1.0 mph 97 % 0.00 in 93.00 W/m2 OVC
10:19 54.4 °F 53.3 °F 30.04 in SSE 3.5 mph 1.9 mph 96 % 0.00 in 91.00 W/m2 OVC
10:24 54.5 °F 53.4 °F 30.03 in SSE 4.6 mph 2.7 mph 96 % 0.00 in 139.00 W/m2 OVC
10:29 54.7 °F 53.6 °F 30.04 in South 3.5 mph 0.8 mph 96 % 0.00 in 123.00 W/m2 OVC
10:34 54.9 °F 53.8 °F 30.04 in WNW 3.5 mph 2.5 mph 96 % 0.00 in 93.00 W/m2 OVC
10:39 55.1 °F 54.0 °F 30.04 in SE 4.6 mph 2.9 mph 96 % 0.00 in 86.00 W/m2 OVC
10:44 55.1 °F 53.7 °F 30.04 in SE 3.5 mph 1.9 mph 95 % 0.00 in 97.00 W/m2 OVC
10:49 55.3 °F 53.9 °F 30.03 in West 4.6 mph 1.9 mph 95 % 0.00 in 104.00 W/m2 OVC
10:54 55.4 °F 54.0 °F 30.04 in ESE 4.6 mph 1.5 mph 95 % 0.00 in 91.00 W/m2 OVC
10:59 55.4 °F 54.0 °F 30.04 in WSW 3.5 mph 2.0 mph 95 % 0.00 in 83.00 W/m2 OVC
11:04 55.5 °F 54.1 °F 30.04 in ESE 3.5 mph 0.4 mph 95 % 0.00 in 118.00 W/m2 OVC
11:09 55.7 °F 54.3 °F 30.04 in SSE 2.0 mph 1.3 mph 95 % 0.00 in 141.00 W/m2 OVC
11:14 55.8 °F 54.4 °F 30.03 in South 2.0 mph 1.1 mph 95 % 0.00 in 130.00 W/m2 OVC
11:19 56.0 °F 54.3 °F 30.03 in SSE 5.8 mph 2.1 mph 94 % 0.00 in 111.00 W/m2 OVC
11:24 56.1 °F 54.4 °F 30.02 in South 3.5 mph 0.5 mph 94 % 0.00 in 120.00 W/m2 OVC
11:29 56.2 °F 54.5 °F 30.02 in SSW 3.5 mph 1.7 mph 94 % 0.00 in 128.00 W/m2 OVC
11:34 56.4 °F 54.7 °F 30.02 in SSE 3.5 mph 1.2 mph 94 % 0.00 in 128.00 W/m2 OVC
11:39 56.5 °F 54.5 °F 30.02 in SSE 5.0 mph 2.9 mph 93 % 0.00 in 132.00 W/m2 OVC
11:44 56.6 °F 54.6 °F 30.02 in SSE 5.0 mph 1.6 mph 93 % 0.00 in 135.00 W/m2 OVC
11:49 56.8 °F 54.8 °F 30.02 in WSW 2.3 mph 0.9 mph 93 % 0.00 in 151.00 W/m2 OVC
11:54 56.9 °F 54.9 °F 30.01 in SE 3.0 mph 1.0 mph 93 % 0.00 in 193.00 W/m2 OVC
11:59 57.1 °F 54.8 °F 30.01 in SSE 5.8 mph 2.7 mph 92 % 0.00 in 120.00 W/m2 OVC
12:04 57.3 °F 55.0 °F 30.00 in WSW 3.5 mph 1.9 mph 92 % 0.00 in 142.00 W/m2 OVC
12:09 57.5 °F 55.2 °F 30.01 in WSW 4.6 mph 1.6 mph 92 % 0.00 in 118.00 W/m2 OVC
12:14 57.7 °F 55.4 °F 30.00 in WSW 3.5 mph 1.0 mph 92 % 0.00 in 81.00 W/m2 OVC
12:19 57.8 °F 55.2 °F 30.01 in West 3.5 mph 2.8 mph 91 % 0.00 in 107.00 W/m2 OVC
12:24 57.9 °F 55.3 °F 30.01 in SW 6.9 mph 1.5 mph 91 % 0.00 in 105.00 W/m2 OVC
12:29 58.1 °F 55.5 °F 30.01 in West 3.0 mph 0.6 mph 91 % 0.00 in 162.00 W/m2 OVC
12:34 58.2 °F 55.3 °F 30.01 in SE 3.5 mph 2.4 mph 90 % 0.00 in 153.00 W/m2 OVC
12:39 58.4 °F 55.2 °F 30.00 in WSW 5.8 mph 1.6 mph 89 % 0.00 in 128.00 W/m2 OVC
12:44 58.6 °F 55.4 °F 30.00 in SSW 4.6 mph 2.7 mph 89 % 0.00 in 165.00 W/m2 OVC
12:49 58.7 °F 55.5 °F 30.00 in SW 3.5 mph 0.7 mph 89 % 0.00 in 156.00 W/m2 OVC
12:54 58.9 °F 55.7 °F 29.99 in SSE 2.0 mph 0.5 mph 89 % 0.00 in 120.00 W/m2 OVC
12:59 58.9 °F 55.0 °F 29.98 in ESE 5.8 mph 3.0 mph 87 % 0.00 in 125.00 W/m2 OVC
13:04 58.9 °F 55.0 °F 29.98 in SSE 4.0 mph 2.7 mph 87 % 0.00 in 167.00 W/m2 OVC
13:09 59.0 °F 55.1 °F 29.98 in ESE 3.5 mph 1.9 mph 87 % 0.00 in 132.00 W/m2 OVC
13:14 59.0 °F 55.1 °F 29.97 in SE 4.6 mph 3.2 mph 87 % 0.00 in 153.00 W/m2 OVC
13:19 59.0 °F 55.1 °F 29.97 in South 4.6 mph 2.0 mph 87 % 0.00 in 308.00 W/m2 OVC
13:24 59.2 °F 55.3 °F 29.97 in SE 4.6 mph 2.8 mph 87 % 0.00 in 408.00 W/m2 OVC
13:29 59.5 °F 55.6 °F 29.96 in SE 8.1 mph 5.1 mph 87 % 0.00 in 251.00 W/m2 OVC
13:34 59.8 °F 55.9 °F 29.96 in SSW 3.5 mph 2.2 mph 87 % 0.00 in 376.00 W/m2 OVC
13:39 60.2 °F 56.0 °F 29.96 in South 5.8 mph 1.8 mph 86 % 0.00 in 279.00 W/m2 OVC
13:44 60.5 °F 56.0 °F 29.96 in East 5.8 mph 2.0 mph 85 % 0.00 in 149.00 W/m2 OVC
13:49 60.5 °F 56.0 °F 29.96 in WSW 3.5 mph 1.6 mph 85 % 0.00 in 83.00 W/m2 OVC
13:54 60.4 °F 55.5 °F 29.96 in SE 4.6 mph 3.2 mph 84 % 0.00 in 100.00 W/m2 OVC
13:59 60.3 °F 55.4 °F 29.96 in WSW 3.5 mph 0.8 mph 84 % 0.00 in 134.00 W/m2 OVC
14:04 60.2 °F 55.7 °F 29.96 in SE 3.5 mph 1.6 mph 85 % 0.00 in 109.00 W/m2 OVC
14:09 60.1 °F 55.6 °F 29.96 in South 4.6 mph 2.5 mph 85 % 0.00 in 100.00 W/m2 OVC
14:14 60.1 °F 55.6 °F 29.96 in NW 3.0 mph 0.6 mph 85 % 0.00 in 114.00 W/m2 OVC
14:19 60.0 °F 55.5 °F 29.97 in WNW 2.3 mph 1.0 mph 85 % 0.00 in 84.00 W/m2 OVC
14:24 60.0 °F 55.5 °F 29.97 in SE 3.5 mph 2.2 mph 85 % 0.00 in 97.00 W/m2 OVC
14:29 59.8 °F 55.3 °F 29.97 in SSE 3.5 mph 1.4 mph 85 % 0.00 in 65.00 W/m2 OVC
14:34 59.6 °F 55.1 °F 29.97 in SSW 4.6 mph 2.6 mph 85 % 0.00 in 56.00 W/m2 OVC
14:39 59.4 °F 54.9 °F 29.97 in WSW 5.0 mph 2.1 mph 85 % 0.00 in 37.00 W/m2 OVC
14:44 59.2 °F 55.0 °F 29.97 in Calm     86 % 0.00 in 42.00 W/m2 OVC
14:49 59.1 °F 54.9 °F 29.97 in East 3.5 mph 0.9 mph 86 % 0.00 in 46.00 W/m2 OVC
14:54 58.9 °F 55.0 °F 29.97 in SSE 3.5 mph 0.1 mph 87 % 0.00 in 37.00 W/m2 OVC
14:59 58.8 °F 54.9 °F 29.97 in Calm     87 % 0.00 in 39.00 W/m2 OVC
15:04 58.7 °F 54.8 °F 29.96 in SSE 5.0 mph 3.2 mph 87 % 0.00 in 40.00 W/m2 OVC
15:09 58.6 °F 54.7 °F 29.96 in SSE 6.9 mph 3.3 mph 87 % 0.00 in 46.00 W/m2 OVC
15:14 58.5 °F 55.0 °F 29.96 in SE 4.0 mph 3.6 mph 88 % 0.00 in 39.00 W/m2 OVC
15:19 58.4 °F 54.9 °F 29.96 in SE 3.5 mph 2.0 mph 88 % 0.00 in 32.00 W/m2 OVC
15:24 58.2 °F 54.7 °F 29.96 in South 3.5 mph 2.5 mph 88 % 0.00 in 35.00 W/m2 OVC
15:29 58.1 °F 54.9 °F 29.96 in SE 5.0 mph 3.2 mph 89 % 0.00 in 51.00 W/m2 OVC
15:34 58.1 °F 54.9 °F 29.95 in SSE 3.5 mph 2.7 mph 89 % 0.00 in 32.00 W/m2 OVC
15:39 58.1 °F 54.9 °F 29.95 in ESE 3.5 mph 2.1 mph 89 % 0.00 in 37.00 W/m2 OVC
15:44 58.0 °F 54.8 °F 29.95 in SE 3.5 mph 1.4 mph 89 % 0.00 in 25.00 W/m2 OVC
15:49 58.0 °F 54.8 °F 29.95 in SE 3.5 mph 1.1 mph 89 % 0.00 in 18.00 W/m2 OVC
15:54 58.0 °F 54.8 °F 29.95 in SE 4.0 mph 1.8 mph 89 % 0.00 in 14.00 W/m2 OVC
15:59 58.0 °F 55.1 °F 29.96 in West 3.5 mph 0.7 mph 90 % 0.00 in 14.00 W/m2 OVC
16:04 57.9 °F 55.3 °F 29.96 in SW 5.8 mph 2.4 mph 91 % 0.01 in 9.00 W/m2 RA
16:09 57.8 °F 55.2 °F 29.96 in South 3.5 mph 0.8 mph 91 % 0.01 in 11.00 W/m2 RA
16:14 57.7 °F 55.4 °F 29.96 in West 3.5 mph 0.3 mph 92 % 0.01 in 14.00 W/m2 OVC
16:19 57.6 °F 55.3 °F 29.96 in Calm     92 % 0.01 in 9.00 W/m2 OVC
16:24 57.5 °F 55.2 °F 29.96 in Calm     92 % 0.01 in 11.00 W/m2 OVC
16:29 57.4 °F 55.4 °F 29.96 in Calm     93 % 0.01 in 9.00 W/m2 OVC
16:34 57.3 °F 55.3 °F 29.95 in Calm     93 % 0.01 in 12.00 W/m2 OVC
16:39 57.2 °F 55.2 °F 29.95 in Calm     93 % 0.01 in 16.00 W/m2 OVC
16:44 57.2 °F 55.2 °F 29.95 in SSE 1.2 mph 0.4 mph 93 % 0.01 in 12.00 W/m2 OVC
16:49 57.1 °F 55.4 °F 29.95 in SW 2.3 mph 1.2 mph 94 % 0.01 in 5.00 W/m2 OVC
16:54 57.0 °F 55.3 °F 29.95 in South 2.3 mph 0.7 mph 94 % 0.01 in 0.00 W/m2 OVC
16:59 56.9 °F 55.2 °F 29.96 in Calm     94 % 0.01 in 0.00 W/m2 OVC
17:04 56.9 °F 55.2 °F 29.96 in Calm     94 % 0.00 in 0.00 W/m2 OVC
17:09 56.9 °F 55.2 °F 29.96 in Calm     94 % 0.00 in 0.00 W/m2 OVC
17:14 56.8 °F 55.1 °F 29.96 in SSE 1.2 mph 0.1 mph 94 % 0.00 in 0.00 W/m2 OVC
17:19 56.8 °F 55.1 °F 29.96 in ESE 2.3 mph 0.8 mph 94 % 0.00 in 0.00 W/m2 OVC
17:24 56.8 °F 55.1 °F 29.94 in SE 3.5 mph 2.5 mph 94 % 0.01 in 0.00 W/m2 RA
17:29 56.8 °F 55.1 °F 29.95 in SE 4.6 mph 2.1 mph 94 % 0.01 in 0.00 W/m2 RA
17:34 56.8 °F 55.1 °F 29.94 in SE 4.0 mph 2.9 mph 94 % 0.01 in 0.00 W/m2 OVC
17:39 56.8 °F 55.4 °F 29.94 in SE 6.9 mph 2.4 mph 95 % 0.01 in 0.00 W/m2 OVC
17:44 56.8 °F 55.4 °F 29.94 in ESE 4.6 mph 2.0 mph 95 % 0.02 in 0.00 W/m2 RA
17:49 56.8 °F 55.4 °F 29.93 in ESE 3.5 mph 2.3 mph 95 % 0.02 in 0.00 W/m2 RA
17:54 56.8 °F 55.4 °F 29.93 in ESE 3.5 mph 2.2 mph 95 % 0.02 in 0.00 W/m2 OVC
17:59 56.8 °F 55.4 °F 29.93 in SE 3.0 mph 1.3 mph 95 % 0.02 in 0.00 W/m2 OVC
18:04 56.8 °F 55.4 °F 29.93 in ESE 3.5 mph 1.8 mph 95 % 0.02 in 0.00 W/m2 OVC
18:09 56.8 °F 55.4 °F 29.92 in ESE 6.9 mph 2.9 mph 95 % 0.02 in 0.00 W/m2 OVC
18:14 56.7 °F 55.3 °F 29.92 in ESE 3.5 mph 2.6 mph 95 % 0.02 in 0.00 W/m2 OVC
18:19 56.7 °F 55.3 °F 29.92 in SE 4.6 mph 2.4 mph 95 % 0.02 in 0.00 W/m2 OVC
18:24 56.7 °F 55.3 °F 29.92 in ESE 3.5 mph 0.7 mph 95 % 0.01 in 0.00 W/m2 OVC
18:29 56.6 °F 55.2 °F 29.92 in ESE 2.3 mph 1.2 mph 95 % 0.01 in 0.00 W/m2 OVC
18:34 56.6 °F 55.2 °F 29.92 in ESE 3.5 mph 0.8 mph 95 % 0.01 in 0.00 W/m2 OVC
18:39 56.5 °F 55.1 °F 29.91 in ESE 3.5 mph 1.7 mph 95 % 0.01 in 0.00 W/m2 OVC
18:44 56.5 °F 55.1 °F 29.92 in SE 2.3 mph 0.9 mph 95 % 0.00 in 0.00 W/m2 OVC
18:49 56.4 °F 55.0 °F 29.92 in ESE 3.5 mph 1.8 mph 95 % 0.00 in 0.00 W/m2 OVC
18:54 56.3 °F 54.9 °F 29.92 in SE 3.5 mph 2.2 mph 95 % 0.00 in 0.00 W/m2 OVC
18:59 56.3 °F 54.9 °F 29.92 in ESE 2.3 mph 0.8 mph 95 % 0.00 in 0.00 W/m2 OVC
19:04 56.3 °F 55.2 °F 29.92 in SE 3.5 mph 1.4 mph 96 % 0.01 in 0.00 W/m2 RA
19:09 56.2 °F 55.1 °F 29.92 in SE 1.2 mph 1.2 mph 96 % 0.01 in 0.00 W/m2 RA
19:14 56.2 °F 55.1 °F 29.92 in ESE 3.5 mph 1.3 mph 96 % 0.01 in 0.00 W/m2 OVC
19:19 56.2 °F 55.1 °F 29.92 in ESE 3.5 mph 1.7 mph 96 % 0.01 in 0.00 W/m2 OVC
19:24 56.2 °F 55.1 °F 29.92 in SE 4.6 mph 1.1 mph 96 % 0.01 in 0.00 W/m2 OVC
19:29 56.2 °F 55.1 °F 29.92 in ESE 3.5 mph 1.5 mph 96 % 0.01 in 0.00 W/m2 OVC
19:34 56.2 °F 55.1 °F 29.91 in SE 3.5 mph 2.2 mph 96 % 0.01 in 0.00 W/m2 OVC
19:39 56.2 °F 55.1 °F 29.92 in ESE 3.5 mph 1.4 mph 96 % 0.01 in 0.00 W/m2 OVC
19:44 56.2 °F 55.1 °F 29.91 in ESE 1.2 mph 0.3 mph 96 % 0.01 in 0.00 W/m2 OVC
19:49 56.2 °F 55.1 °F 29.91 in ESE 2.3 mph 0.3 mph 96 % 0.01 in 0.00 W/m2 OVC
19:54 56.2 °F 55.1 °F 29.91 in ESE 2.3 mph 0.8 mph 96 % 0.01 in 0.00 W/m2 OVC
19:59 56.2 °F 55.1 °F 29.91 in ESE 3.5 mph 1.9 mph 96 % 0.01 in 0.00 W/m2 OVC
20:04 56.2 °F 55.1 °F 29.91 in SE 3.5 mph 2.1 mph 96 % 0.00 in 0.00 W/m2 OVC
20:09 56.2 °F 55.1 °F 29.91 in ESE 1.2 mph 0.2 mph 96 % 0.00 in 0.00 W/m2 OVC
20:14 56.2 °F 55.1 °F 29.91 in ESE 2.3 mph 0.6 mph 96 % 0.01 in 0.00 W/m2 RA
20:19 56.2 °F 55.1 °F 29.91 in ESE 2.3 mph 0.9 mph 96 % 0.01 in 0.00 W/m2 RA
20:24 56.2 °F 55.1 °F 29.91 in SE 2.3 mph 1.2 mph 96 % 0.01 in 0.00 W/m2 OVC
20:29 56.2 °F 55.1 °F 29.91 in ESE 2.3 mph 0.4 mph 96 % 0.01 in 0.00 W/m2 OVC
20:34 56.3 °F 55.2 °F 29.91 in Calm     96 % 0.01 in 0.00 W/m2 OVC
20:39 56.2 °F 55.1 °F 29.90 in Calm     96 % 0.01 in 0.00 W/m2 OVC
20:44 56.2 °F 55.1 °F 29.90 in Calm     96 % 0.01 in 0.00 W/m2 OVC
20:49 56.2 °F 55.4 °F 29.90 in Calm     97 % 0.01 in 0.00 W/m2 OVC
20:54 56.2 °F 55.4 °F 29.91 in Calm     97 % 0.01 in 0.00 W/m2 OVC
20:59 56.2 °F 55.4 °F 29.90 in Calm     97 % 0.01 in 0.00 W/m2 OVC
21:04 56.2 °F 55.4 °F 29.90 in Calm     97 % 0.01 in 0.00 W/m2 OVC
21:09 56.2 °F 55.4 °F 29.90 in SE 1.0 mph 0.4 mph 97 % 0.01 in 0.00 W/m2 OVC
21:14 56.3 °F 55.5 °F 29.90 in SE 2.3 mph 1.5 mph 97 % 0.00 in 0.00 W/m2 OVC
21:19 56.4 °F 55.6 °F 29.90 in SE 2.3 mph 0.1 mph 97 % 0.00 in 0.00 W/m2 OVC
21:24 56.5 °F 55.7 °F 29.90 in SE 3.5 mph 1.6 mph 97 % 0.00 in 0.00 W/m2 OVC
21:29 56.6 °F 55.8 °F 29.90 in SSE 5.8 mph 2.4 mph 97 % 0.00 in 0.00 W/m2 OVC
21:34 56.8 °F 56.0 °F 29.90 in SE 4.6 mph 1.4 mph 97 % 0.00 in 0.00 W/m2 OVC
21:39 56.9 °F 56.1 °F 29.89 in SE 3.5 mph 1.3 mph 97 % 0.00 in 0.00 W/m2 OVC
21:44 57.0 °F 56.2 °F 29.89 in SSE 3.5 mph 2.2 mph 97 % 0.00 in 0.00 W/m2 OVC
21:49 57.1 °F 56.3 °F 29.89 in SE 3.5 mph 1.9 mph 97 % 0.00 in 0.00 W/m2 OVC
21:54 57.2 °F 56.4 °F 29.89 in SE 6.9 mph 4.2 mph 97 % 0.00 in 0.00 W/m2 OVC
21:59 57.3 °F 56.5 °F 29.89 in ESE 4.6 mph 2.7 mph 97 % 0.00 in 0.00 W/m2 OVC
22:04 57.4 °F 56.6 °F 29.88 in ESE 3.5 mph 2.4 mph 97 % 0.00 in 0.00 W/m2 OVC
22:09 57.5 °F 56.7 °F 29.88 in ESE 4.6 mph 2.7 mph 97 % 0.00 in 0.00 W/m2 OVC
22:14 57.6 °F 56.8 °F 29.89 in SE 3.5 mph 1.6 mph 97 % 0.01 in 0.00 W/m2 RA
22:19 57.7 °F 56.9 °F 29.88 in SSE 3.5 mph 1.9 mph 97 % 0.01 in 0.00 W/m2 RA
22:24 57.7 °F 56.9 °F 29.88 in SE 3.5 mph 1.1 mph 97 % 0.01 in 0.00 W/m2 OVC
22:29 57.7 °F 56.9 °F 29.88 in SE 4.6 mph 2.4 mph 97 % 0.01 in 0.00 W/m2 OVC
22:34 57.7 °F 56.9 °F 29.88 in SE 3.5 mph 2.6 mph 97 % 0.01 in 0.00 W/m2 OVC
22:39 57.8 °F 57.0 °F 29.87 in SE 3.5 mph 2.7 mph 97 % 0.01 in 0.00 W/m2 OVC
22:44 57.8 °F 57.0 °F 29.87 in SSE 3.5 mph 1.5 mph 97 % 0.01 in 0.00 W/m2 OVC
22:49 57.9 °F 57.1 °F 29.87 in SE 4.6 mph 2.4 mph 97 % 0.01 in 0.00 W/m2 OVC
22:54 57.9 °F 57.1 °F 29.87 in SE 3.5 mph 2.1 mph 97 % 0.01 in 0.00 W/m2 OVC
22:59 58.0 °F 57.2 °F 29.86 in South 5.0 mph 3.7 mph 97 % 0.01 in 0.00 W/m2 OVC
23:04 58.0 °F 57.2 °F 29.86 in ESE 4.6 mph 3.1 mph 97 % 0.01 in 0.00 W/m2 OVC
23:09 58.1 °F 57.3 °F 29.86 in SE 4.6 mph 3.2 mph 97 % 0.01 in 0.00 W/m2 OVC
23:14 58.2 °F 57.4 °F 29.85 in SE 4.6 mph 3.7 mph 97 % 0.00 in 0.00 W/m2 OVC
23:19 58.2 °F 57.4 °F 29.85 in SE 7.0 mph 3.7 mph 97 % 0.00 in 0.00 W/m2 OVC
23:24 58.3 °F 57.2 °F 29.85 in SE 4.6 mph 3.1 mph 96 % 0.00 in 0.00 W/m2 OVC
23:29 58.4 °F 57.3 °F 29.84 in SE 9.2 mph 4.9 mph 96 % 0.00 in 0.00 W/m2 OVC
23:34 58.4 °F 57.3 °F 29.84 in SE 3.5 mph 3.1 mph 96 % 0.00 in 0.00 W/m2 OVC
23:39 58.5 °F 57.4 °F 29.84 in SE 8.1 mph 4.7 mph 96 % 0.00 in 0.00 W/m2 OVC
23:44 58.5 °F 57.4 °F 29.83 in SE 9.2 mph 4.8 mph 96 % 0.00 in 0.00 W/m2 OVC
23:49 58.5 °F 57.4 °F 29.83 in SE 4.0 mph 2.8 mph 96 % 0.00 in 0.00 W/m2 OVC
23:54 58.6 °F 57.5 °F 29.83 in SE 5.8 mph 3.6 mph 96 % 0.00 in 0.00 W/m2 OVC
23:59 58.6 °F 57.5 °F 29.83 in SE 9.2 mph 3.7 mph 96 % 0.00 in 0.00 W/m2 OVC
Murfreesboro Weather Live
Compliments of Weather Underground - 2.25 mb